Time;durP1;ratioP1;P1;durP2;ratioP2;P2;SDS_P1;SDS_P2;PMS_P1;PMS_P2;Temp;Humidity;BMP_temperature;BMP_pressure;BME280_temperature;BME280_humidity;BME280_pressure;Samples;Min_cycle;Max_cycle;Signal;HPM_P1;HPM_P2
2021/03/10 00:02:03;;;;;;;;;;;;;;;-4.05;62.46;101319.55;1604796;85;20678;-75
2021/03/10 00:04:47;;;;;;;;;;;;;;;-4.01;62.51;101325.64;1612154;87;20343;-74
2021/03/10 00:07:32;;;;;;;;;;;;;;;-4.01;62.57;101323.98;1598462;88;20416;-75
2021/03/10 00:10:17;;;;;;;;;;;;;;;-3.98;62.62;101320.75;1595099;88;20301;-75
2021/03/10 00:13:01;;;;;;;;;;;;;;;-3.96;62.62;101321.70;1604628;88;20348;-75
2021/03/10 00:15:46;;;;;;;;;;;;;;;-3.94;62.59;101323.05;1604925;88;20306;-75
2021/03/10 00:18:31;;;;;;;;;;;;;;;-3.94;62.59;101321.78;1603528;85;20326;-75
2021/03/10 00:21:15;;;;;;;;;;;;;;;-3.97;62.52;101318.70;1608167;88;20298;-75
2021/03/10 00:24:00;;;;;;;;;;;;;;;-3.98;62.60;101324.54;1596002;88;20311;-74
2021/03/10 00:26:44;;;;;;;;;;;;;;;-3.98;62.54;101319.88;1601828;88;20332;-74
2021/03/10 00:29:29;;;;;;;;;;;;;;;-4.00;62.61;101315.62;1594967;88;20332;-75
2021/03/10 00:32:14;;;;;;;;;;;;;;;-4.00;62.58;101319.41;1601968;87;20567;-74
2021/03/10 00:35:01;;;;;;;;;;;;;;;-4.02;62.48;101322.64;1607045;87;20528;-75
2021/03/10 00:37:45;;;;;;;;;;;;;;;-4.05;62.49;101319.95;1605507;88;20296;-74
2021/03/10 00:40:29;;;;;;;;;;;;;;;-4.14;62.46;101321.97;1603413;87;20318;-74
2021/03/10 00:43:14;;;;;;;;;;;;;;;-4.19;62.59;101319.23;1597253;87;20341;-74
2021/03/10 00:45:59;;;;;;;;;;;;;;;-4.17;62.77;101314.27;1605095;87;20604;-74
2021/03/10 00:48:43;;;;;;;;;;;;;;;-4.17;62.67;101310.08;1597322;87;20305;-74
2021/03/10 00:51:28;;;;;;;;;;;;;;;-4.18;62.80;101313.39;1597643;87;20316;-74
2021/03/10 00:54:12;;;;;;;;;;;;;;;-4.20;62.74;101312.44;1607757;87;20318;-76
2021/03/10 00:56:57;;;;;;;;;;;;;;;-4.19;62.84;101303.21;1610344;85;20607;-76
2021/03/10 00:59:42;;;;;;;;;;;;;;;-4.18;62.85;101308.73;1603875;87;20324;-76
2021/03/10 01:02:26;;;;;;;;;;;;;;;-4.19;62.89;101308.26;1625082;85;20311;-76
2021/03/10 01:05:12;;;;;;;;;;;;;;;-4.20;62.79;101304.87;1635966;86;20562;-76
2021/03/10 01:07:57;;;;;;;;;;;;;;;-4.21;62.87;101316.14;1621914;86;20339;-76
2021/03/10 01:10:41;;;;;;;;;;;;;;;-4.22;62.92;101308.09;1673039;84;20205;-76
2021/03/10 01:13:26;;;;;;;;;;;;;;;-4.22;62.96;101311.87;1676827;84;20919;-76
2021/03/10 01:16:11;;;;;;;;;;;;;;;-4.22;63.01;101308.97;1665963;84;20231;-76
2021/03/10 01:18:56;;;;;;;;;;;;;;;-4.23;62.94;101300.91;1677263;84;20238;-76
2021/03/10 01:21:41;;;;;;;;;;;;;;;-4.24;62.96;101299.56;1668855;84;20290;-76
2021/03/10 01:24:26;;;;;;;;;;;;;;;-4.29;62.95;101298.45;1676694;84;20312;-76
2021/03/10 01:27:10;;;;;;;;;;;;;;;-4.33;63.08;101293.63;1669998;84;20983;-76
2021/03/10 01:29:55;;;;;;;;;;;;;;;-4.36;63.05;101291.80;1679974;84;20306;-76
2021/03/10 01:32:40;;;;;;;;;;;;;;;-4.40;63.21;101294.95;1672243;84;20292;-76
2021/03/10 01:35:24;;;;;;;;;;;;;;;-4.42;63.26;101295.64;1667757;84;20349;-76
2021/03/10 01:38:09;;;;;;;;;;;;;;;-4.44;63.20;101293.03;1680025;84;20281;-76
2021/03/10 01:40:54;;;;;;;;;;;;;;;-4.49;63.27;101289.78;1661210;84;20227;-75
2021/03/10 01:43:39;;;;;;;;;;;;;;;-4.45;63.46;101292.95;1671454;84;20619;-75
2021/03/10 01:46:25;;;;;;;;;;;;;;;-4.41;63.35;101289.81;1670117;84;20394;-75
2021/03/10 01:49:10;;;;;;;;;;;;;;;-4.41;63.25;101290.68;1647163;84;20345;-75
2021/03/10 01:51:54;;;;;;;;;;;;;;;-4.44;63.31;101286.73;1634675;86;20323;-75
2021/03/10 01:54:39;;;;;;;;;;;;;;;-4.44;63.29;101292.16;1634846;86;20317;-76
2021/03/10 01:57:23;;;;;;;;;;;;;;;-4.51;63.32;101290.96;1655761;84;20514;-76
2021/03/10 02:00:10;;;;;;;;;;;;;;;-4.55;63.21;101289.05;1668489;84;20554;-75
2021/03/10 02:02:55;;;;;;;;;;;;;;;-4.59;63.26;101285.88;1613999;87;20436;-75
2021/03/10 02:05:40;;;;;;;;;;;;;;;-4.60;63.44;101279.09;1595656;87;20344;-75
2021/03/10 02:08:55;;;;;;;;;;;;;;;-4.60;63.40;101277.83;1618657;88;20312;-76
2021/03/10 02:11:49;;;;;;;;;;;;;;;-4.61;63.38;101276.48;1610171;87;20299;-76
2021/03/10 02:14:58;;;;;;;;;;;;;;;-4.64;63.47;101276.31;1639836;86;20300;-76
2021/03/10 02:17:46;;;;;;;;;;;;;;;-4.65;63.40;101270.40;1598141;89;20364;-75
2021/03/10 02:20:46;;;;;;;;;;;;;;;-4.69;63.37;101269.39;1609605;87;20301;-76
2021/03/10 02:23:46;;;;;;;;;;;;;;;-4.71;63.38;101271.36;1562009;87;20952;-75
2021/03/10 02:26:53;;;;;;;;;;;;;;;-4.79;63.16;101272.19;1601418;87;20323;-75
2021/03/10 02:29:38;;;;;;;;;;;;;;;-4.89;63.26;101269.94;1584966;88;20358;-75
2021/03/10 02:32:22;;;;;;;;;;;;;;;-4.93;63.40;101275.59;1604763;87;20619;-75
2021/03/10 02:35:09;;;;;;;;;;;;;;;-4.93;63.51;101273.45;1607452;87;20696;-75
2021/03/10 02:38:02;;;;;;;;;;;;;;;-4.92;63.58;101273.54;1621115;87;20289;-75
2021/03/10 02:40:48;;;;;;;;;;;;;;;-4.92;63.41;101272.28;1673338;84;20287;-76
2021/03/10 02:43:32;;;;;;;;;;;;;;;-4.93;63.58;101266.76;1608633;87;20290;-76
2021/03/10 02:46:18;;;;;;;;;;;;;;;-4.91;63.54;101267.72;1615887;86;20553;-76
2021/03/10 02:49:02;;;;;;;;;;;;;;;-5.02;63.37;101268.76;1613691;87;20198;-76
2021/03/10 02:51:47;;;;;;;;;;;;;;;-5.04;63.46;101270.33;1598150;87;20193;-76
2021/03/10 02:54:32;;;;;;;;;;;;;;;-5.05;63.54;101269.84;1622747;87;20486;-76
2021/03/10 02:57:17;;;;;;;;;;;;;;;-5.05;63.59;101275.76;1589290;89;20281;-76
2021/03/10 03:00:14;;;;;;;;;;;;;;;-5.04;63.53;101266.55;1594566;87;20275;-76
2021/03/10 03:02:58;;;;;;;;;;;;;;;-5.09;63.42;101272.97;1637633;85;20273;-76
2021/03/10 03:05:42;;;;;;;;;;;;;;;-5.13;63.58;101271.06;1594887;87;20546;-76
2021/03/10 03:08:27;;;;;;;;;;;;;;;-5.13;63.70;101268.53;1613865;87;20268;-76
2021/03/10 03:11:13;;;;;;;;;;;;;;;-5.14;63.69;101268.92;1608983;86;20200;-76
2021/03/10 03:13:59;;;;;;;;;;;;;;;-5.17;63.60;101269.14;1639022;86;20202;-76
2021/03/10 03:16:43;;;;;;;;;;;;;;;-5.23;63.58;101270.08;1592598;88;20262;-76
2021/03/10 03:19:28;;;;;;;;;;;;;;;-5.30;63.69;101276.81;1630414;86;20312;-76
2021/03/10 03:22:13;;;;;;;;;;;;;;;-5.29;63.74;101276.90;1624791;87;20270;-76
2021/03/10 03:24:58;;;;;;;;;;;;;;;-5.39;63.61;101276.75;1619079;87;20308;-76
2021/03/10 03:27:45;;;;;;;;;;;;;;;-5.38;63.82;101276.36;1625775;87;20283;-76
2021/03/10 03:30:33;;;;;;;;;;;;;;;-5.36;63.85;101275.67;1630276;86;20333;-76
2021/03/10 03:33:24;;;;;;;;;;;;;;;-5.33;63.84;101277.50;1636192;86;20281;-76
2021/03/10 03:36:08;;;;;;;;;;;;;;;-5.37;63.74;101271.80;1602472;88;20271;-76
2021/03/10 03:38:53;;;;;;;;;;;;;;;-5.35;63.86;101272.77;1615919;86;20546;-76
2021/03/10 03:41:37;;;;;;;;;;;;;;;-5.34;63.80;101265.68;1633497;86;20285;-76
2021/03/10 03:44:22;;;;;;;;;;;;;;;-5.34;63.87;101271.98;1599888;88;20295;-75
2021/03/10 03:47:06;;;;;;;;;;;;;;;-5.36;63.79;101268.50;1646005;85;20327;-75
2021/03/10 03:49:51;;;;;;;;;;;;;;;-5.37;64.00;101271.41;1622666;87;20311;-75
2021/03/10 03:52:41;;;;;;;;;;;;;;;-5.34;63.99;101270.72;1598664;89;20328;-75
2021/03/10 03:55:26;;;;;;;;;;;;;;;-5.34;64.00;101265.29;1638205;86;20285;-75
2021/03/10 03:58:11;;;;;;;;;;;;;;;-5.31;64.08;101266.25;1640224;86;20697;-74
2021/03/10 04:00:55;;;;;;;;;;;;;;;-5.30;64.16;101270.12;1663756;83;20570;-74
2021/03/10 04:03:40;;;;;;;;;;;;;;;-5.31;64.15;101277.20;1675754;84;20340;-75
2021/03/10 04:06:24;;;;;;;;;;;;;;;-5.34;64.04;101275.38;1677050;84;20301;-76
2021/03/10 04:09:09;;;;;;;;;;;;;;;-5.35;63.95;101276.15;1679655;84;20330;-75
2021/03/10 04:11:54;;;;;;;;;;;;;;;-5.38;63.89;101271.33;1682600;84;20303;-75
2021/03/10 04:14:38;;;;;;;;;;;;;;;-5.45;63.93;101276.39;1663605;84;20283;-75
2021/03/10 04:17:23;;;;;;;;;;;;;;;-5.46;64.16;101287.25;1669870;84;20626;-75
2021/03/10 04:20:11;;;;;;;;;;;;;;;-5.45;64.13;101283.95;1677728;84;20325;-75
2021/03/10 04:22:56;;;;;;;;;;;;;;;-5.44;64.14;101284.44;1671924;83;20458;-76
2021/03/10 04:25:41;;;;;;;;;;;;;;;-5.47;64.19;101283.38;1673925;84;20306;-75
2021/03/10 04:28:25;;;;;;;;;;;;;;;-5.47;64.19;101288.03;1680988;84;20295;-75
2021/03/10 04:31:10;;;;;;;;;;;;;;;-5.50;64.19;101285.72;1677171;84;20346;-75
2021/03/10 04:33:54;;;;;;;;;;;;;;;-5.50;64.22;101289.50;1662068;84;20314;-74
2021/03/10 04:36:39;;;;;;;;;;;;;;;-5.52;64.21;101293.19;1668920;84;20388;-74
2021/03/10 04:39:24;;;;;;;;;;;;;;;-5.54;64.29;101297.27;1662982;84;20617;-75
2021/03/10 04:42:09;;;;;;;;;;;;;;;-5.56;64.17;101297.56;1678153;84;20297;-75
2021/03/10 04:44:53;;;;;;;;;;;;;;;-5.60;64.08;101299.81;1675977;84;20296;-75
2021/03/10 04:47:39;;;;;;;;;;;;;;;-5.67;64.10;101298.57;1672279;84;20306;-76
2021/03/10 04:50:23;;;;;;;;;;;;;;;-5.69;64.22;101296.35;1670294;84;20311;-76
2021/03/10 04:53:08;;;;;;;;;;;;;;;-5.74;64.23;101302.80;1669167;84;20327;-76
2021/03/10 04:55:53;;;;;;;;;;;;;;;-5.79;64.22;101300.00;1660965;84;20394;-76
2021/03/10 04:58:37;;;;;;;;;;;;;;;-5.81;64.30;101305.33;1673493;84;20299;-75
2021/03/10 05:01:22;;;;;;;;;;;;;;;-5.79;64.30;101302.52;1675311;84;20290;-75
2021/03/10 05:04:06;;;;;;;;;;;;;;;-5.80;64.32;101303.69;1683515;84;20663;-75
2021/03/10 05:06:51;;;;;;;;;;;;;;;-5.81;64.25;101304.07;1673389;84;20318;-75
2021/03/10 05:09:36;;;;;;;;;;;;;;;-5.80;64.48;101308.72;1675789;84;20326;-75
2021/03/10 05:12:21;;;;;;;;;;;;;;;-5.78;64.51;101308.42;1677982;84;20298;-75
2021/03/10 05:15:06;;;;;;;;;;;;;;;-5.77;64.48;101313.55;1679181;84;20551;-76
2021/03/10 05:17:51;;;;;;;;;;;;;;;-5.77;64.42;101310.16;1675981;84;20290;-75
2021/03/10 05:20:35;;;;;;;;;;;;;;;-5.79;64.50;101307.55;1647715;85;20316;-76
2021/03/10 05:23:20;;;;;;;;;;;;;;;-5.77;64.48;101309.77;1645508;85;20710;-75
2021/03/10 05:26:04;;;;;;;;;;;;;;;-5.76;64.47;101304.34;1666091;84;20278;-75
2021/03/10 05:28:49;;;;;;;;;;;;;;;-5.74;64.51;101309.09;1678213;84;20317;-75
2021/03/10 05:31:34;;;;;;;;;;;;;;;-5.74;64.49;101315.39;1674334;84;20652;-74
2021/03/10 05:34:18;;;;;;;;;;;;;;;-5.76;64.52;101322.84;1673183;84;20294;-74
2021/03/10 05:37:04;;;;;;;;;;;;;;;-5.78;64.62;101321.02;1677841;84;20582;-74
2021/03/10 05:39:48;;;;;;;;;;;;;;;-5.74;64.82;101325.46;1674881;84;21195;-74
2021/03/10 05:42:33;;;;;;;;;;;;;;;-5.69;64.91;101324.06;1676236;84;20350;-74
2021/03/10 05:45:17;;;;;;;;;;;;;;;-5.61;64.78;101329.17;1676852;82;20595;-74
2021/03/10 05:48:02;;;;;;;;;;;;;;;-5.58;64.73;101329.35;1674161;84;20347;-74
2021/03/10 05:50:47;;;;;;;;;;;;;;;-5.50;64.84;101333.20;1674749;84;20338;-75
2021/03/10 05:53:35;;;;;;;;;;;;;;;-5.42;64.83;101330.75;1674655;84;20290;-75
2021/03/10 05:56:20;;;;;;;;;;;;;;;-5.26;65.20;101332.92;1678178;84;20319;-75
2021/03/10 05:59:04;;;;;;;;;;;;;;;-5.07;65.15;101325.22;1676728;84;20282;-73
2021/03/10 06:01:49;;;;;;;;;;;;;;;-4.83;65.44;101327.03;1677016;84;20318;-74
2021/03/10 06:04:41;;;;;;;;;;;;;;;-4.51;65.57;101337.64;1668104;85;20334;-73
2021/03/10 06:07:25;;;;;;;;;;;;;;;-4.13;65.60;101333.42;1670325;84;20323;-74
2021/03/10 06:10:10;;;;;;;;;;;;;;;-3.67;65.76;101332.09;1664995;84;20287;-75
2021/03/10 06:12:55;;;;;;;;;;;;;;;-3.20;65.73;101329.86;1667528;84;20322;-75
2021/03/10 06:15:41;;;;;;;;;;;;;;;-2.73;65.67;101335.59;1666179;84;20286;-75
2021/03/10 06:18:28;;;;;;;;;;;;;;;-2.27;65.67;101330.18;1666803;84;20332;-76
2021/03/10 06:21:17;;;;;;;;;;;;;;;-1.83;65.51;101333.88;1679964;83;20270;-76
2021/03/10 06:24:04;;;;;;;;;;;;;;;-1.40;65.53;101342.97;1662412;84;20264;-76
2021/03/10 06:26:55;;;;;;;;;;;;;;;-1.21;64.95;101345.91;1669063;84;20278;-75
2021/03/10 06:29:39;;;;;;;;;;;;;;;-1.05;65.24;101340.69;1670937;84;20197;-76
2021/03/10 06:32:24;;;;;;;;;;;;;;;-0.72;65.42;101345.87;1662585;84;20313;-75
2021/03/10 06:35:09;;;;;;;;;;;;;;;-0.40;65.43;101343.34;1670028;84;20262;-75
2021/03/10 06:37:57;;;;;;;;;;;;;;;-0.18;65.24;101347.59;1669968;84;20271;-75
2021/03/10 06:40:53;;;;;;;;;;;;;;;-0.11;65.09;101345.76;1667622;84;20187;-75
2021/03/10 06:43:42;;;;;;;;;;;;;;;0.02;65.40;101347.06;1667663;84;20337;-75
2021/03/10 06:46:27;;;;;;;;;;;;;;;0.28;65.32;101351.87;1669427;84;20472;-76
2021/03/10 06:49:13;;;;;;;;;;;;;;;0.39;65.14;101354.41;1665448;84;20287;-76
2021/03/10 06:52:08;;;;;;;;;;;;;;;0.43;65.07;101356.66;1668911;84;20301;-76
2021/03/10 06:54:58;;;;;;;;;;;;;;;0.46;65.22;101358.05;1671086;84;20276;-75
2021/03/10 06:57:44;;;;;;;;;;;;;;;0.46;65.11;101365.27;1669306;84;20307;-75
2021/03/10 07:00:28;;;;;;;;;;;;;;;0.31;64.97;101365.97;1670821;84;20278;-75
2021/03/10 07:03:14;;;;;;;;;;;;;;;0.12;65.02;101361.00;1680053;84;20262;-75
2021/03/10 07:05:58;;;;;;;;;;;;;;;-0.04;65.07;101374.42;1680077;83;20278;-75
2021/03/10 07:08:44;;;;;;;;;;;;;;;-0.22;64.99;101376.23;1661140;84;20455;-75
2021/03/10 07:11:28;;;;;;;;;;;;;;;-0.28;65.16;101370.91;1679732;84;20270;-75
2021/03/10 07:14:13;;;;;;;;;;;;;;;-0.16;65.47;101373.94;1679195;83;20279;-75
2021/03/10 07:16:58;;;;;;;;;;;;;;;0.09;65.76;101371.92;1676550;84;20196;-75
2021/03/10 07:19:43;;;;;;;;;;;;;;;0.39;65.74;101373.89;1679890;84;20252;-76
2021/03/10 07:22:50;;;;;;;;;;;;;;;0.71;65.78;101380.13;1679858;83;20286;-75
2021/03/10 07:25:38;;;;;;;;;;;;;;;0.95;65.64;101378.06;1679655;83;20494;-75
2021/03/10 07:28:28;;;;;;;;;;;;;;;1.20;65.60;101380.15;1680090;83;20266;-75
2021/03/10 07:31:23;;;;;;;;;;;;;;;1.48;65.69;101385.77;1680933;83;20298;-75
2021/03/10 07:34:09;;;;;;;;;;;;;;;1.75;65.69;101390.88;1677854;84;20315;-75
2021/03/10 07:36:53;;;;;;;;;;;;;;;2.08;65.79;101384.25;1678674;83;20310;-75
2021/03/10 07:39:38;;;;;;;;;;;;;;;2.38;65.77;101389.42;1676600;84;20306;-74
2021/03/10 07:42:22;;;;;;;;;;;;;;;2.63;65.71;101384.59;1678097;84;20306;-74
2021/03/10 07:45:08;;;;;;;;;;;;;;;2.91;65.66;101385.81;1677026;84;20298;-74
2021/03/10 07:47:54;;;;;;;;;;;;;;;3.14;65.53;101385.54;1678095;84;20317;-75
2021/03/10 07:50:42;;;;;;;;;;;;;;;3.31;65.40;101393.23;1678151;84;20319;-74
2021/03/10 07:53:39;;;;;;;;;;;;;;;3.51;65.42;101387.36;1678439;84;20408;-75
2021/03/10 07:56:25;;;;;;;;;;;;;;;3.69;65.45;101389.06;1678591;84;20294;-74
2021/03/10 07:59:13;;;;;;;;;;;;;;;3.84;65.39;101390.71;1676448;84;20682;-75
2021/03/10 08:02:03;;;;;;;;;;;;;;;4.03;65.45;101403.52;1680899;83;20314;-75
2021/03/10 08:05:01;;;;;;;;;;;;;;;4.16;65.08;101404.67;1658224;86;20620;-75
2021/03/10 08:07:45;;;;;;;;;;;;;;;4.37;65.07;101404.26;1660343;85;20303;-75
2021/03/10 08:10:30;;;;;;;;;;;;;;;4.64;65.06;101406.13;1642541;86;20755;-75
2021/03/10 08:13:18;;;;;;;;;;;;;;;4.75;65.15;101403.76;1661990;84;20296;-75
2021/03/10 08:16:04;;;;;;;;;;;;;;;4.72;65.24;101401.13;1643727;86;20295;-74
2021/03/10 08:18:48;;;;;;;;;;;;;;;4.67;65.29;101407.89;1660649;86;20456;-74
2021/03/10 08:21:33;;;;;;;;;;;;;;;4.50;65.01;101410.09;1661489;85;20290;-74
2021/03/10 08:24:18;;;;;;;;;;;;;;;4.47;65.18;101417.30;1660428;84;20299;-75
2021/03/10 08:27:04;;;;;;;;;;;;;;;4.38;64.99;101411.97;1661305;84;20445;-75
2021/03/10 08:29:49;;;;;;;;;;;;;;;4.21;64.88;101412.01;1655595;86;20343;-76
2021/03/10 08:32:34;;;;;;;;;;;;;;;4.06;64.87;101411.69;1656187;86;20343;-75
2021/03/10 08:35:22;;;;;;;;;;;;;;;3.94;65.00;101405.45;1658869;85;20282;-74
2021/03/10 08:38:06;;;;;;;;;;;;;;;3.89;64.99;101404.89;1657104;85;20315;-75
2021/03/10 08:40:51;;;;;;;;;;;;;;;3.84;64.92;101417.57;1653821;85;20408;-74
2021/03/10 08:43:35;;;;;;;;;;;;;;;3.87;64.86;101420.20;1660887;85;20291;-75
2021/03/10 08:46:20;;;;;;;;;;;;;;;3.97;64.78;101417.04;1657623;84;20346;-75
2021/03/10 08:49:25;;;;;;;;;;;;;;;4.09;64.64;101413.91;1658732;84;20291;-74
2021/03/10 08:52:15;;;;;;;;;;;;;;;4.25;64.66;101412.11;1660654;85;20343;-75
2021/03/10 08:55:02;;;;;;;;;;;;;;;4.51;64.41;101412.69;1660292;84;20311;-74
2021/03/10 08:57:46;;;;;;;;;;;;;;;4.81;64.55;101412.84;1661577;84;20339;-74
2021/03/10 09:00:33;;;;;;;;;;;;;;;4.68;64.49;101417.30;1660790;83;20319;-75
2021/03/10 09:03:19;;;;;;;;;;;;;;;4.47;64.56;101421.13;1653879;84;20297;-73
2021/03/10 09:06:04;;;;;;;;;;;;;;;4.25;64.61;101413.81;1634798;86;20301;-73
2021/03/10 09:08:48;;;;;;;;;;;;;;;4.11;64.59;101412.66;1640239;86;20293;-74
2021/03/10 09:11:33;;;;;;;;;;;;;;;3.95;64.42;101413.99;1637624;86;20307;-74
2021/03/10 09:14:17;;;;;;;;;;;;;;;3.75;64.32;101409.67;1634480;86;21017;-74
2021/03/10 09:17:02;;;;;;;;;;;;;;;3.65;64.52;101416.66;1639512;86;20526;-73
2021/03/10 09:19:48;;;;;;;;;;;;;;;3.61;64.44;101411.05;1631855;86;20313;-74
2021/03/10 09:22:32;;;;;;;;;;;;;;;3.62;64.65;101414.06;1640081;86;20317;-73
2021/03/10 09:25:42;;;;;;;;;;;;;;;3.61;64.55;101415.75;1620815;86;20297;-74
2021/03/10 09:28:34;;;;;;;;;;;;;;;3.62;64.65;101415.34;1635315;86;20753;-74
2021/03/10 09:31:18;;;;;;;;;;;;;;;3.64;64.38;101405.57;1636645;87;20309;-74
2021/03/10 09:34:05;;;;;;;;;;;;;;;3.61;64.29;101402.11;1639006;86;20331;-74
2021/03/10 09:36:51;;;;;;;;;;;;;;;3.56;64.15;101405.83;1633105;86;20293;-74
2021/03/10 09:39:46;;;;;;;;;;;;;;;3.54;63.78;101406.61;1634992;86;20317;-74
2021/03/10 09:42:31;;;;;;;;;;;;;;;3.50;63.83;101400.97;1636236;87;20579;-73
2021/03/10 09:45:24;;;;;;;;;;;;;;;3.51;63.27;101406.53;1636173;86;20313;-74
2021/03/10 09:48:11;;;;;;;;;;;;;;;3.47;62.91;101405.59;1635685;86;20318;-74
2021/03/10 09:51:12;;;;;;;;;;;;;;;3.38;62.65;101403.21;1638627;86;20304;-74
2021/03/10 09:53:58;;;;;;;;;;;;;;;3.30;62.81;101394.06;1638381;86;20331;-74
2021/03/10 09:56:50;;;;;;;;;;;;;;;3.29;62.83;101401.28;1632645;86;20301;-74
2021/03/10 09:59:35;;;;;;;;;;;;;;;3.32;62.68;101409.03;1634842;86;20335;-74
2021/03/10 10:02:20;;;;;;;;;;;;;;;3.38;62.80;101406.63;1677982;83;20314;-74
2021/03/10 10:05:06;;;;;;;;;;;;;;;3.47;62.74;101406.00;1701639;82;20338;-74
2021/03/10 10:07:51;;;;;;;;;;;;;;;3.53;62.59;101404.88;1703215;82;20298;-75
2021/03/10 10:10:37;;;;;;;;;;;;;;;3.58;62.49;101405.45;1716773;83;20228;-75
2021/03/10 10:13:21;;;;;;;;;;;;;;;3.62;62.45;101403.84;1671200;84;20270;-75
2021/03/10 10:16:07;;;;;;;;;;;;;;;3.70;62.55;101406.55;1677850;82;20330;-75
2021/03/10 10:18:51;;;;;;;;;;;;;;;3.77;62.42;101408.02;1657216;84;20322;-75
2021/03/10 10:21:36;;;;;;;;;;;;;;;3.81;62.32;101413.66;1704119;82;20975;-75
2021/03/10 10:24:24;;;;;;;;;;;;;;;3.84;62.28;101408.62;1701236;82;20665;-75
2021/03/10 10:27:08;;;;;;;;;;;;;;;3.86;62.20;101405.68;1705420;82;20307;-74
2021/03/10 10:29:53;;;;;;;;;;;;;;;3.86;62.10;101409.52;1709655;82;20293;-75
2021/03/10 10:32:38;;;;;;;;;;;;;;;3.89;62.01;101410.01;1704280;82;21426;-75
2021/03/10 10:35:23;;;;;;;;;;;;;;;3.85;61.96;101419.72;1702778;82;20292;-75
2021/03/10 10:38:08;;;;;;;;;;;;;;;3.83;61.93;101421.38;1703341;83;20280;-75
2021/03/10 10:40:52;;;;;;;;;;;;;;;3.87;61.89;101415.50;1698389;82;20304;-75
2021/03/10 10:43:37;;;;;;;;;;;;;;;3.89;61.96;101414.71;1701947;82;20395;-75
2021/03/10 10:46:21;;;;;;;;;;;;;;;3.97;61.93;101414.48;1697373;82;20658;-76
2021/03/10 10:49:06;;;;;;;;;;;;;;;4.05;61.85;101413.80;1699433;82;20570;-75
2021/03/10 10:51:50;;;;;;;;;;;;;;;4.10;61.81;101415.63;1700141;82;20294;-74
2021/03/10 10:54:35;;;;;;;;;;;;;;;4.14;61.81;101405.91;1707603;83;20733;-73
2021/03/10 10:57:20;;;;;;;;;;;;;;;4.22;61.79;101412.45;1695437;82;20583;-73
2021/03/10 11:00:14;;;;;;;;;;;;;;;4.29;61.74;101417.75;1699649;82;20420;-74
2021/03/10 11:02:58;;;;;;;;;;;;;;;4.34;61.70;101415.30;1675683;84;20280;-74
2021/03/10 11:05:43;;;;;;;;;;;;;;;4.38;61.68;101409.83;1675371;84;20301;-74
2021/03/10 11:08:28;;;;;;;;;;;;;;;4.42;61.36;101407.37;1676398;84;20322;-75
2021/03/10 11:11:12;;;;;;;;;;;;;;;4.46;61.43;101412.14;1677107;84;20844;-75
2021/03/10 11:13:56;;;;;;;;;;;;;;;4.49;61.21;101410.92;1676509;84;21304;-75
2021/03/10 11:16:41;;;;;;;;;;;;;;;4.49;61.31;101405.39;1678655;84;20199;-75
2021/03/10 11:19:26;;;;;;;;;;;;;;;4.54;61.21;101407.63;1676673;84;20314;-75
2021/03/10 11:22:10;;;;;;;;;;;;;;;4.53;61.11;101404.62;1673669;84;20311;-75
2021/03/10 11:24:55;;;;;;;;;;;;;;;4.48;60.87;101406.22;1701003;82;20319;-75
2021/03/10 11:27:39;;;;;;;;;;;;;;;4.38;60.84;101399.17;1698556;82;20544;-75
2021/03/10 11:30:24;;;;;;;;;;;;;;;4.37;61.02;101401.28;1698827;81;20304;-75
2021/03/10 11:33:10;;;;;;;;;;;;;;;4.36;61.05;101402.11;1688375;83;20284;-75
2021/03/10 11:35:55;;;;;;;;;;;;;;;4.44;61.06;101404.42;1683819;83;20299;-74
2021/03/10 11:38:39;;;;;;;;;;;;;;;4.44;60.83;101403.14;1686526;83;20317;-74
2021/03/10 11:41:24;;;;;;;;;;;;;;;4.43;60.75;101397.58;1659314;84;20292;-75
2021/03/10 11:44:09;;;;;;;;;;;;;;;4.43;60.53;101394.15;1685430;83;20253;-75
2021/03/10 11:46:54;;;;;;;;;;;;;;;4.42;60.56;101391.14;1688385;83;20289;-75
2021/03/10 11:49:38;;;;;;;;;;;;;;;4.44;60.56;101392.03;1687987;83;20273;-74
2021/03/10 11:52:22;;;;;;;;;;;;;;;4.42;60.41;101400.10;1689374;83;20425;-75
2021/03/10 11:55:10;;;;;;;;;;;;;;;4.39;60.41;101406.02;1690715;83;20269;-75
2021/03/10 11:57:54;;;;;;;;;;;;;;;4.37;60.30;101400.00;1686137;83;20267;-74
2021/03/10 12:00:39;;;;;;;;;;;;;;;4.37;60.41;101394.02;1691852;83;20462;-74
2021/03/10 12:03:23;;;;;;;;;;;;;;;4.40;60.47;101396.23;1690597;83;20276;-74
2021/03/10 12:06:08;;;;;;;;;;;;;;;4.46;60.41;101391.23;1657767;85;20296;-74
2021/03/10 12:08:53;;;;;;;;;;;;;;;4.50;60.17;101380.23;1689954;83;21562;-73
2021/03/10 12:11:38;;;;;;;;;;;;;;;4.53;60.29;101384.55;1684689;83;20336;-75
2021/03/10 12:14:25;;;;;;;;;;;;;;;4.54;60.15;101376.90;1686415;83;20303;-75
2021/03/10 12:17:11;;;;;;;;;;;;;;;4.55;59.85;101381.19;1689112;83;20304;-75
2021/03/10 12:19:56;;;;;;;;;;;;;;;4.53;59.80;101373.89;1688403;83;20293;-75
2021/03/10 12:22:41;;;;;;;;;;;;;;;4.53;59.70;101372.61;1656036;85;20587;-75
2021/03/10 12:25:25;;;;;;;;;;;;;;;4.55;59.72;101366.23;1685687;83;20333;-74
2021/03/10 12:28:10;;;;;;;;;;;;;;;4.60;59.69;101365.92;1686388;83;20421;-75
2021/03/10 12:30:55;;;;;;;;;;;;;;;4.60;59.49;101360.80;1685894;83;20334;-74
2021/03/10 12:33:40;;;;;;;;;;;;;;;4.59;59.43;101359.93;1663963;83;20287;-74
2021/03/10 12:36:25;;;;;;;;;;;;;;;4.59;59.45;101362.49;1689133;83;20344;-73
2021/03/10 12:39:10;;;;;;;;;;;;;;;4.62;59.43;101357.84;1690273;83;20601;-74
2021/03/10 12:41:54;;;;;;;;;;;;;;;4.63;59.35;101342.92;1689408;83;20417;-74
2021/03/10 12:44:41;;;;;;;;;;;;;;;4.64;59.29;101347.22;1688059;83;20292;-74
2021/03/10 12:47:25;;;;;;;;;;;;;;;4.65;59.15;101348.53;1689846;83;20316;-74
2021/03/10 12:50:11;;;;;;;;;;;;;;;4.68;59.09;101355.83;1684393;83;21495;-74
2021/03/10 12:52:55;;;;;;;;;;;;;;;4.64;58.92;101345.52;1690456;83;20201;-75
2021/03/10 12:55:40;;;;;;;;;;;;;;;4.63;58.96;101337.80;1682892;83;20301;-74
2021/03/10 12:58:25;;;;;;;;;;;;;;;4.59;58.88;101339.44;1688292;83;20281;-74
2021/03/10 13:01:09;;;;;;;;;;;;;;;4.59;58.78;101339.44;1688804;83;20447;-74
2021/03/10 13:03:54;;;;;;;;;;;;;;;4.60;58.64;101341.59;1692757;83;20467;-75
2021/03/10 13:06:39;;;;;;;;;;;;;;;4.57;58.73;101334.70;1692471;84;20283;-75
2021/03/10 13:09:23;;;;;;;;;;;;;;;4.58;58.62;101321.48;1653798;85;20295;-75
2021/03/10 13:12:08;;;;;;;;;;;;;;;4.60;58.62;101321.09;1693139;84;20306;-76
2021/03/10 13:14:52;;;;;;;;;;;;;;;4.59;58.40;101305.28;1454233;84;20011858;-75
2021/03/10 13:17:37;;;;;;;;;;;;;;;4.59;58.41;101304.86;1653850;85;20312;-76
2021/03/10 13:20:22;;;;;;;;;;;;;;;4.61;58.24;101310.88;1658748;83;20268;-75
2021/03/10 13:23:07;;;;;;;;;;;;;;;4.59;58.22;101306.14;1654271;85;20619;-75
2021/03/10 13:25:51;;;;;;;;;;;;;;;4.57;57.98;101305.67;1635674;87;20338;-75
2021/03/10 13:28:37;;;;;;;;;;;;;;;4.55;58.01;101295.81;1621404;86;20323;-75
2021/03/10 13:31:22;;;;;;;;;;;;;;;4.57;58.16;101292.45;1689645;84;20308;-75
2021/03/10 13:34:07;;;;;;;;;;;;;;;4.62;58.11;101289.97;1690434;83;20317;-76
2021/03/10 13:36:52;;;;;;;;;;;;;;;4.65;58.01;101292.17;1685323;84;20299;-75
2021/03/10 13:39:36;;;;;;;;;;;;;;;4.67;57.87;101288.78;1687275;83;20320;-75
2021/03/10 13:42:21;;;;;;;;;;;;;;;4.69;57.77;101290.92;1687467;84;20280;-76
2021/03/10 13:45:06;;;;;;;;;;;;;;;4.71;57.73;101295.23;1658140;85;20303;-76
2021/03/10 13:47:52;;;;;;;;;;;;;;;4.75;57.81;101303.84;1653121;85;20317;-76
2021/03/10 13:50:39;;;;;;;;;;;;;;;4.78;57.70;101303.91;1643807;86;21085;-76
2021/03/10 13:53:24;;;;;;;;;;;;;;;4.76;57.69;101310.28;1646472;86;20294;-76
2021/03/10 13:56:08;;;;;;;;;;;;;;;4.76;57.42;101308.13;1623582;87;20307;-76
2021/03/10 13:58:53;;;;;;;;;;;;;;;4.70;57.47;101300.33;1687419;84;20699;-75
2021/03/10 14:01:37;;;;;;;;;;;;;;;4.70;57.70;101299.91;1679745;84;20304;-75
2021/03/10 14:04:22;;;;;;;;;;;;;;;4.68;57.48;101296.91;1645951;85;20295;-75
2021/03/10 14:07:07;;;;;;;;;;;;;;;4.63;57.44;101292.56;1658046;84;20322;-76
2021/03/10 14:09:51;;;;;;;;;;;;;;;4.63;57.46;101295.54;1652239;85;20313;-76
2021/03/10 14:12:36;;;;;;;;;;;;;;;4.61;57.40;101298.49;1685853;84;20608;-76
2021/03/10 14:15:21;;;;;;;;;;;;;;;4.58;57.03;101300.58;1691695;84;20287;-76
2021/03/10 14:18:05;;;;;;;;;;;;;;;4.54;57.08;101306.89;1675967;84;20686;-76
2021/03/10 14:20:50;;;;;;;;;;;;;;;4.49;57.13;101310.64;1689614;84;20515;-76